sensor_id;sensor_type;location;lat;lon;timestamp;pressure;altitude;pressure_sealevel;temperature;humidity
32237;BME280;18726;44.732;10.550;2022-10-16T00:02:34;101460.22;;;19.18;100.00
32237;BME280;18726;44.732;10.550;2022-10-16T00:05:41;101467.97;;;18.99;100.00
32237;BME280;18726;44.732;10.550;2022-10-16T00:08:45;101457.69;;;18.88;100.00
32237;BME280;18726;44.732;10.550;2022-10-16T00:11:49;101455.28;;;18.83;100.00
32237;BME280;18726;44.732;10.550;2022-10-16T00:14:53;101447.38;;;18.78;100.00
32237;BME280;18726;44.732;10.550;2022-10-16T00:17:57;101464.69;;;18.75;100.00
32237;BME280;18726;44.732;10.550;2022-10-16T00:21:27;101467.88;;;18.84;100.00
32237;BME280;18726;44.732;10.550;2022-10-16T00:24:28;101470.31;;;18.93;100.00
32237;BME280;18726;44.732;10.550;2022-10-16T00:27:33;101471.13;;;18.97;100.00
32237;BME280;18726;44.732;10.550;2022-10-16T00:30:38;101477.34;;;18.87;100.00
32237;BME280;18726;44.732;10.550;2022-10-16T00:33:42;101477.28;;;18.76;100.00
32237;BME280;18726;44.732;10.550;2022-10-16T00:36:45;101481.22;;;18.75;100.00
32237;BME280;18726;44.732;10.550;2022-10-16T00:39:49;101480.38;;;18.71;100.00
32237;BME280;18726;44.732;10.550;2022-10-16T00:42:53;101478.00;;;18.66;100.00
32237;BME280;18726;44.732;10.550;2022-10-16T00:45:58;101479.53;;;18.64;100.00
32237;BME280;18726;44.732;10.550;2022-10-16T00:49:12;101485.13;;;18.74;100.00
32237;BME280;18726;44.732;10.550;2022-10-16T00:52:18;101483.22;;;18.85;100.00
32237;BME280;18726;44.732;10.550;2022-10-16T00:55:23;101495.38;;;18.81;100.00
32237;BME280;18726;44.732;10.550;2022-10-16T00:58:28;101493.34;;;18.67;100.00
32237;BME280;18726;44.732;10.550;2022-10-16T01:01:32;101491.25;;;18.57;100.00
32237;BME280;18726;44.732;10.550;2022-10-16T01:04:45;101486.91;;;18.56;100.00
32237;BME280;18726;44.732;10.550;2022-10-16T01:14:59;101473.91;;;18.53;100.00
32237;BME280;18726;44.732;10.550;2022-10-16T01:21:26;101482.59;;;18.59;100.00
32237;BME280;18726;44.732;10.550;2022-10-16T01:24:41;101487.06;;;18.70;100.00
32237;BME280;18726;44.732;10.550;2022-10-16T01:27:48;101488.28;;;18.76;100.00
32237;BME280;18726;44.732;10.550;2022-10-16T01:30:55;101486.03;;;18.93;100.00
32237;BME280;18726;44.732;10.550;2022-10-16T01:34:50;101491.59;;;19.00;100.00
32237;BME280;18726;44.732;10.550;2022-10-16T01:37:59;101491.25;;;19.05;100.00
32237;BME280;18726;44.732;10.550;2022-10-16T01:41:17;101486.81;;;18.89;100.00
32237;BME280;18726;44.732;10.550;2022-10-16T01:44:26;101478.47;;;18.82;100.00
32237;BME280;18726;44.732;10.550;2022-10-16T01:47:31;101494.59;;;18.80;100.00
32237;BME280;18726;44.732;10.550;2022-10-16T01:50:38;101485.94;;;18.82;100.00
32237;BME280;18726;44.732;10.550;2022-10-16T01:53:53;101485.91;;;18.71;100.00
32237;BME280;18726;44.732;10.550;2022-10-16T01:56:57;101483.75;;;18.54;100.00
32237;BME280;18726;44.732;10.550;2022-10-16T02:00:06;101490.25;;;18.32;100.00
32237;BME280;18726;44.732;10.550;2022-10-16T02:03:18;101497.22;;;18.22;100.00
32237;BME280;18726;44.732;10.550;2022-10-16T02:34:28;101494.19;;;17.64;100.00
32237;BME280;18726;44.732;10.550;2022-10-16T02:37:35;101493.75;;;17.58;100.00
32237;BME280;18726;44.732;10.550;2022-10-16T02:40:40;101495.56;;;17.47;100.00
32237;BME280;18726;44.732;10.550;2022-10-16T02:43:44;101495.44;;;17.36;100.00
32237;BME280;18726;44.732;10.550;2022-10-16T02:46:48;101501.28;;;17.31;100.00
32237;BME280;18726;44.732;10.550;2022-10-16T02:49:52;101490.50;;;17.19;100.00
32237;BME280;18726;44.732;10.550;2022-10-16T02:52:56;101494.31;;;17.11;100.00
32237;BME280;18726;44.732;10.550;2022-10-16T02:55:59;101500.63;;;17.15;100.00
32237;BME280;18726;44.732;10.550;2022-10-16T02:59:03;101506.13;;;17.15;100.00
32237;BME280;18726;44.732;10.550;2022-10-16T03:02:08;101499.47;;;17.16;100.00
32237;BME280;18726;44.732;10.550;2022-10-16T03:05:12;101505.50;;;17.25;100.00
32237;BME280;18726;44.732;10.550;2022-10-16T03:08:16;101510.84;;;17.44;100.00
32237;BME280;18726;44.732;10.550;2022-10-16T03:11:20;101514.34;;;17.41;100.00
32237;BME280;18726;44.732;10.550;2022-10-16T03:14:24;101507.50;;;17.28;100.00
32237;BME280;18726;44.732;10.550;2022-10-16T03:17:28;101511.72;;;17.22;100.00
32237;BME280;18726;44.732;10.550;2022-10-16T03:20:31;101517.13;;;17.15;100.00
32237;BME280;18726;44.732;10.550;2022-10-16T03:23:35;101516.56;;;17.02;100.00
32237;BME280;18726;44.732;10.550;2022-10-16T03:26:39;101506.97;;;16.93;100.00
32237;BME280;18726;44.732;10.550;2022-10-16T03:29:43;101513.63;;;16.92;100.00
32237;BME280;18726;44.732;10.550;2022-10-16T03:32:46;101515.34;;;17.00;100.00
32237;BME280;18726;44.732;10.550;2022-10-16T03:35:54;101520.66;;;16.89;100.00
32237;BME280;18726;44.732;10.550;2022-10-16T03:38:58;101521.25;;;17.02;100.00
32237;BME280;18726;44.732;10.550;2022-10-16T03:42:02;101527.66;;;17.13;100.00
32237;BME280;18726;44.732;10.550;2022-10-16T03:45:06;101529.91;;;17.34;100.00
32237;BME280;18726;44.732;10.550;2022-10-16T03:48:09;101535.19;;;17.46;100.00
32237;BME280;18726;44.732;10.550;2022-10-16T03:51:13;101532.91;;;17.51;100.00
32237;BME280;18726;44.732;10.550;2022-10-16T03:54:17;101540.41;;;17.54;100.00
32237;BME280;18726;44.732;10.550;2022-10-16T03:57:21;101535.78;;;17.59;100.00
32237;BME280;18726;44.732;10.550;2022-10-16T04:00:24;101536.94;;;17.58;100.00
32237;BME280;18726;44.732;10.550;2022-10-16T04:03:28;101531.75;;;17.52;100.00
32237;BME280;18726;44.732;10.550;2022-10-16T04:06:32;101537.00;;;17.35;100.00
32237;BME280;18726;44.732;10.550;2022-10-16T04:09:36;101540.41;;;16.98;100.00
32237;BME280;18726;44.732;10.550;2022-10-16T04:12:39;101546.75;;;16.79;100.00
32237;BME280;18726;44.732;10.550;2022-10-16T04:15:44;101541.44;;;16.90;100.00
32237;BME280;18726;44.732;10.550;2022-10-16T04:18:48;101548.16;;;16.93;100.00
32237;BME280;18726;44.732;10.550;2022-10-16T04:21:52;101550.13;;;16.69;100.00
32237;BME280;18726;44.732;10.550;2022-10-16T04:24:55;101543.69;;;16.39;100.00
32237;BME280;18726;44.732;10.550;2022-10-16T04:27:59;101546.78;;;16.14;100.00
32237;BME280;18726;44.732;10.550;2022-10-16T04:31:06;101545.34;;;16.01;100.00
32237;BME280;18726;44.732;10.550;2022-10-16T04:34:09;101547.81;;;15.87;100.00
32237;BME280;18726;44.732;10.550;2022-10-16T04:37:13;101542.97;;;15.80;100.00
32237;BME280;18726;44.732;10.550;2022-10-16T04:40:16;101552.28;;;15.76;100.00
32237;BME280;18726;44.732;10.550;2022-10-16T04:43:20;101546.63;;;15.69;100.00
32237;BME280;18726;44.732;10.550;2022-10-16T04:46:24;101546.63;;;15.69;100.00
32237;BME280;18726;44.732;10.550;2022-10-16T04:49:28;101550.53;;;15.68;100.00
32237;BME280;18726;44.732;10.550;2022-10-16T04:52:31;101546.84;;;15.60;100.00
32237;BME280;18726;44.732;10.550;2022-10-16T04:55:35;101544.28;;;15.51;100.00
32237;BME280;18726;44.732;10.550;2022-10-16T04:58:39;101550.41;;;15.45;100.00
32237;BME280;18726;44.732;10.550;2022-10-16T05:01:42;101562.50;;;15.44;100.00
32237;BME280;18726;44.732;10.550;2022-10-16T05:04:46;101563.03;;;15.49;100.00
32237;BME280;18726;44.732;10.550;2022-10-16T05:07:49;101568.00;;;15.79;100.00
32237;BME280;18726;44.732;10.550;2022-10-16T05:14:53;101574.16;;;16.34;100.00
32237;BME280;18726;44.732;10.550;2022-10-16T05:18:01;101574.19;;;16.14;100.00
32237;BME280;18726;44.732;10.550;2022-10-16T05:21:05;101564.44;;;15.98;100.00
32237;BME280;18726;44.732;10.550;2022-10-16T05:24:09;101567.91;;;15.75;100.00
32237;BME280;18726;44.732;10.550;2022-10-16T05:27:13;101571.00;;;15.74;100.00
32237;BME280;18726;44.732;10.550;2022-10-16T05:30:22;101576.44;;;15.54;100.00
32237;BME280;18726;44.732;10.550;2022-10-16T05:33:26;101583.00;;;15.34;100.00
32237;BME280;18726;44.732;10.550;2022-10-16T05:36:29;101579.88;;;15.16;100.00
32237;BME280;18726;44.732;10.550;2022-10-16T05:39:33;101584.13;;;15.14;100.00
32237;BME280;18726;44.732;10.550;2022-10-16T05:42:37;101583.66;;;15.12;100.00
32237;BME280;18726;44.732;10.550;2022-10-16T05:45:40;101583.41;;;15.17;100.00
32237;BME280;18726;44.732;10.550;2022-10-16T05:48:44;101591.44;;;15.26;100.00
32237;BME280;18726;44.732;10.550;2022-10-16T05:51:48;101587.59;;;15.46;100.00
32237;BME280;18726;44.732;10.550;2022-10-16T05:54:51;101593.97;;;15.85;100.00
32237;BME280;18726;44.732;10.550;2022-10-16T05:57:55;101603.03;;;16.08;100.00
32237;BME280;18726;44.732;10.550;2022-10-16T06:01:04;101608.53;;;16.08;100.00
32237;BME280;18726;44.732;10.550;2022-10-16T06:04:10;101613.00;;;16.16;100.00
32237;BME280;18726;44.732;10.550;2022-10-16T06:07:14;101622.19;;;16.47;100.00
32237;BME280;18726;44.732;10.550;2022-10-16T06:10:17;101626.22;;;16.53;100.00
32237;BME280;18726;44.732;10.550;2022-10-16T06:13:21;101634.75;;;16.67;100.00
32237;BME280;18726;44.732;10.550;2022-10-16T06:16:26;101632.94;;;16.98;100.00
32237;BME280;18726;44.732;10.550;2022-10-16T06:19:29;101641.13;;;17.70;100.00
32237;BME280;18726;44.732;10.550;2022-10-16T06:22:32;101653.72;;;19.05;100.00
32237;BME280;18726;44.732;10.550;2022-10-16T06:25:36;101666.28;;;20.15;100.00
32237;BME280;18726;44.732;10.550;2022-10-16T06:28:40;101683.47;;;20.78;100.00
32237;BME280;18726;44.732;10.550;2022-10-16T06:31:44;101679.13;;;20.95;100.00
32237;BME280;18726;44.732;10.550;2022-10-16T06:34:47;101691.00;;;21.41;100.00
32237;BME280;18726;44.732;10.550;2022-10-16T06:37:52;101691.38;;;21.15;100.00
32237;BME280;18726;44.732;10.550;2022-10-16T06:40:57;101686.81;;;20.29;100.00
32237;BME280;18726;44.732;10.550;2022-10-16T06:44:01;101701.81;;;19.62;100.00
32237;BME280;18726;44.732;10.550;2022-10-16T06:47:05;101686.81;;;19.12;100.00
32237;BME280;18726;44.732;10.550;2022-10-16T06:50:09;101695.84;;;18.68;100.00
32237;BME280;18726;44.732;10.550;2022-10-16T06:53:12;101697.34;;;18.32;100.00
32237;BME280;18726;44.732;10.550;2022-10-16T06:59:21;101704.75;;;18.28;100.00
32237;BME280;18726;44.732;10.550;2022-10-16T07:02:24;101703.91;;;18.24;100.00
32237;BME280;18726;44.732;10.550;2022-10-16T07:05:28;101707.03;;;18.22;100.00
32237;BME280;18726;44.732;10.550;2022-10-16T07:08:40;101710.22;;;18.25;100.00
32237;BME280;18726;44.732;10.550;2022-10-16T07:11:44;101715.72;;;18.25;100.00
32237;BME280;18726;44.732;10.550;2022-10-16T07:14:47;101723.09;;;18.47;100.00
32237;BME280;18726;44.732;10.550;2022-10-16T07:17:51;101723.44;;;18.75;100.00
32237;BME280;18726;44.732;10.550;2022-10-16T07:21:03;101726.63;;;19.18;100.00
32237;BME280;18726;44.732;10.550;2022-10-16T07:24:10;101739.94;;;19.53;100.00
32237;BME280;18726;44.732;10.550;2022-10-16T07:27:14;101743.56;;;19.61;100.00
32237;BME280;18726;44.732;10.550;2022-10-16T07:30:19;101749.09;;;19.68;100.00
32237;BME280;18726;44.732;10.550;2022-10-16T07:33:22;101748.91;;;19.98;100.00
32237;BME280;18726;44.732;10.550;2022-10-16T07:36:27;101755.47;;;20.37;100.00
32237;BME280;18726;44.732;10.550;2022-10-16T07:39:31;101751.28;;;20.72;100.00
32237;BME280;18726;44.732;10.550;2022-10-16T07:42:35;101758.44;;;20.90;100.00
32237;BME280;18726;44.732;10.550;2022-10-16T07:45:47;101766.03;;;21.22;100.00
32237;BME280;18726;44.732;10.550;2022-10-16T07:48:51;101773.09;;;21.16;100.00
32237;BME280;18726;44.732;10.550;2022-10-16T07:51:55;101774.75;;;21.52;100.00
32237;BME280;18726;44.732;10.550;2022-10-16T07:54:58;101775.53;;;21.74;100.00
32237;BME280;18726;44.732;10.550;2022-10-16T07:58:02;101784.19;;;22.19;100.00
32237;BME280;18726;44.732;10.550;2022-10-16T08:01:10;101786.44;;;22.56;100.00
32237;BME280;18726;44.732;10.550;2022-10-16T08:04:14;101792.66;;;22.88;100.00
32237;BME280;18726;44.732;10.550;2022-10-16T08:07:18;101795.69;;;23.12;100.00
32237;BME280;18726;44.732;10.550;2022-10-16T08:10:24;101797.00;;;23.52;100.00
32237;BME280;18726;44.732;10.550;2022-10-16T08:13:28;101795.44;;;23.54;100.00
32237;BME280;18726;44.732;10.550;2022-10-16T08:16:31;101797.00;;;24.00;100.00
32237;BME280;18726;44.732;10.550;2022-10-16T08:19:35;101806.59;;;24.67;100.00
32237;BME280;18726;44.732;10.550;2022-10-16T08:22:39;101807.16;;;25.70;86.49
32237;BME280;18726;44.732;10.550;2022-10-16T08:25:43;101814.13;;;28.34;71.04
32237;BME280;18726;44.732;10.550;2022-10-16T08:28:49;101818.44;;;31.62;52.22
32237;BME280;18726;44.732;10.550;2022-10-16T08:31:54;101823.38;;;33.46;45.26
32237;BME280;18726;44.732;10.550;2022-10-16T08:34:58;101828.44;;;36.33;39.80
32237;BME280;18726;44.732;10.550;2022-10-16T08:38:04;101818.41;;;35.71;39.11
32237;BME280;18726;44.732;10.550;2022-10-16T08:41:47;101823.97;;;36.26;36.76
32237;BME280;18726;44.732;10.550;2022-10-16T08:48:29;101817.41;;;35.53;39.32
32237;BME280;18726;44.732;10.550;2022-10-16T08:51:38;101811.84;;;36.77;35.52
32237;BME280;18726;44.732;10.550;2022-10-16T08:54:44;101815.63;;;36.17;37.26
32237;BME280;18726;44.732;10.550;2022-10-16T08:57:50;101810.41;;;34.99;38.59
32237;BME280;18726;44.732;10.550;2022-10-16T09:00:55;101811.84;;;34.06;39.57
32237;BME280;18726;44.732;10.550;2022-10-16T09:07:46;101803.44;;;33.73;43.37
32237;BME280;18726;44.732;10.550;2022-10-16T09:10:59;101816.19;;;35.25;41.26
32237;BME280;18726;44.732;10.550;2022-10-16T09:20:52;101813.94;;;37.14;36.53
32237;BME280;18726;44.732;10.550;2022-10-16T09:24:00;101825.59;;;36.12;34.91
32237;BME280;18726;44.732;10.550;2022-10-16T09:27:12;101807.22;;;33.13;39.87
32237;BME280;18726;44.732;10.550;2022-10-16T09:30:19;101808.16;;;31.77;44.38
32237;BME280;18726;44.732;10.550;2022-10-16T09:33:27;101809.34;;;31.39;46.75
32237;BME280;18726;44.732;10.550;2022-10-16T09:36:39;101814.66;;;33.59;43.18
32237;BME280;18726;44.732;10.550;2022-10-16T09:39:50;101815.41;;;34.31;39.64
32237;BME280;18726;44.732;10.550;2022-10-16T09:43:01;101816.44;;;35.77;39.73
32237;BME280;18726;44.732;10.550;2022-10-16T09:46:08;101822.59;;;36.42;39.26
32237;BME280;18726;44.732;10.550;2022-10-16T09:49:26;101822.97;;;36.55;37.37
32237;BME280;18726;44.732;10.550;2022-10-16T09:52:30;101813.91;;;35.09;37.48
32237;BME280;18726;44.732;10.550;2022-10-16T09:55:34;101806.53;;;34.67;40.95
32237;BME280;18726;44.732;10.550;2022-10-16T09:58:38;101799.44;;;34.57;42.06
32237;BME280;18726;44.732;10.550;2022-10-16T10:01:47;101803.56;;;34.17;42.97
32237;BME280;18726;44.732;10.550;2022-10-16T10:04:52;101802.31;;;33.80;40.41
32237;BME280;18726;44.732;10.550;2022-10-16T10:08:03;101801.88;;;32.82;42.51
32237;BME280;18726;44.732;10.550;2022-10-16T10:11:11;101796.47;;;32.15;46.14
32237;BME280;18726;44.732;10.550;2022-10-16T10:17:23;101796.75;;;32.63;44.94
32237;BME280;18726;44.732;10.550;2022-10-16T10:20:31;101795.84;;;32.11;47.60
32237;BME280;18726;44.732;10.550;2022-10-16T10:23:38;101788.97;;;32.48;48.07
32237;BME280;18726;44.732;10.550;2022-10-16T10:30:01;101802.78;;;31.51;44.85
32237;BME280;18726;44.732;10.550;2022-10-16T10:36:45;101787.19;;;30.27;47.83
32237;BME280;18726;44.732;10.550;2022-10-16T10:43:35;101783.28;;;29.17;59.30
32237;BME280;18726;44.732;10.550;2022-10-16T10:46:51;101788.19;;;29.51;59.21
32237;BME280;18726;44.732;10.550;2022-10-16T10:53:36;101786.25;;;30.08;54.20
32237;BME280;18726;44.732;10.550;2022-10-16T10:56:51;101778.59;;;29.99;53.43
32237;BME280;18726;44.732;10.550;2022-10-16T11:06:20;101781.38;;;30.43;52.59
32237;BME280;18726;44.732;10.550;2022-10-16T11:09:32;101779.22;;;30.69;56.53
32237;BME280;18726;44.732;10.550;2022-10-16T11:12:41;101778.69;;;30.83;54.22
32237;BME280;18726;44.732;10.550;2022-10-16T11:15:48;101769.50;;;30.92;52.60
32237;BME280;18726;44.732;10.550;2022-10-16T11:22:38;101773.50;;;30.50;52.76
32237;BME280;18726;44.732;10.550;2022-10-16T11:25:43;101765.69;;;29.29;54.42
32237;BME280;18726;44.732;10.550;2022-10-16T11:28:53;101759.84;;;29.62;53.31
32237;BME280;18726;44.732;10.550;2022-10-16T11:32:06;101757.38;;;29.64;53.13
32237;BME280;18726;44.732;10.550;2022-10-16T11:35:48;101760.72;;;30.28;53.01
32237;BME280;18726;44.732;10.550;2022-10-16T11:42:43;101768.75;;;30.60;53.04
32237;BME280;18726;44.732;10.550;2022-10-16T11:45:53;101764.34;;;30.81;56.27
32237;BME280;18726;44.732;10.550;2022-10-16T11:49:04;101765.91;;;30.91;50.62
32237;BME280;18726;44.732;10.550;2022-10-16T11:52:36;101762.84;;;29.67;51.77
32237;BME280;18726;44.732;10.550;2022-10-16T11:55:45;101760.81;;;29.08;56.05
32237;BME280;18726;44.732;10.550;2022-10-16T12:08:53;101758.66;;;29.24;51.61
32237;BME280;18726;44.732;10.550;2022-10-16T12:11:58;101749.00;;;29.38;57.63
32237;BME280;18726;44.732;10.550;2022-10-16T12:15:27;101745.94;;;29.71;56.04
32237;BME280;18726;44.732;10.550;2022-10-16T12:18:31;101747.31;;;29.88;55.02
32237;BME280;18726;44.732;10.550;2022-10-16T12:21:34;101742.88;;;29.78;55.56
32237;BME280;18726;44.732;10.550;2022-10-16T12:24:41;101746.31;;;29.82;58.58
32237;BME280;18726;44.732;10.550;2022-10-16T12:27:54;101749.63;;;28.82;54.73
32237;BME280;18726;44.732;10.550;2022-10-16T12:31:04;101751.06;;;28.33;56.51
32237;BME280;18726;44.732;10.550;2022-10-16T12:34:39;101743.38;;;27.30;58.10
32237;BME280;18726;44.732;10.550;2022-10-16T12:37:45;101745.09;;;27.73;69.23
32237;BME280;18726;44.732;10.550;2022-10-16T12:40:59;101744.19;;;27.92;64.75
32237;BME280;18726;44.732;10.550;2022-10-16T12:44:03;101753.00;;;28.19;67.04
32237;BME280;18726;44.732;10.550;2022-10-16T12:47:35;101749.31;;;28.51;67.01
32237;BME280;18726;44.732;10.550;2022-10-16T12:50:39;101749.56;;;28.70;67.73
32237;BME280;18726;44.732;10.550;2022-10-16T12:53:44;101763.94;;;28.84;64.93
32237;BME280;18726;44.732;10.550;2022-10-16T13:00:26;101757.00;;;29.02;63.11
32237;BME280;18726;44.732;10.550;2022-10-16T13:06:58;101753.28;;;28.79;61.28
32237;BME280;18726;44.732;10.550;2022-10-16T13:20:09;101754.19;;;28.89;61.90
32237;BME280;18726;44.732;10.550;2022-10-16T13:23:57;101758.78;;;28.96;60.17
32237;BME280;18726;44.732;10.550;2022-10-16T13:27:07;101757.44;;;28.87;61.24
32237;BME280;18726;44.732;10.550;2022-10-16T13:30:18;101759.91;;;28.85;62.49
32237;BME280;18726;44.732;10.550;2022-10-16T13:36:44;101761.03;;;29.01;62.24
32237;BME280;18726;44.732;10.550;2022-10-16T13:39:49;101763.47;;;28.99;60.66
32237;BME280;18726;44.732;10.550;2022-10-16T13:42:54;101759.66;;;28.80;57.19
32237;BME280;18726;44.732;10.550;2022-10-16T13:49:05;101758.28;;;28.72;62.85
32237;BME280;18726;44.732;10.550;2022-10-16T13:52:20;101765.34;;;28.76;62.71
32237;BME280;18726;44.732;10.550;2022-10-16T13:55:23;101763.16;;;28.84;62.09
32237;BME280;18726;44.732;10.550;2022-10-16T13:58:27;101761.47;;;28.86;64.67
32237;BME280;18726;44.732;10.550;2022-10-16T14:04:43;101764.28;;;28.86;57.61
32237;BME280;18726;44.732;10.550;2022-10-16T14:07:49;101767.53;;;28.43;60.27
32237;BME280;18726;44.732;10.550;2022-10-16T14:10:57;101760.00;;;28.28;59.19
32237;BME280;18726;44.732;10.550;2022-10-16T14:14:01;101767.16;;;28.29;56.14
32237;BME280;18726;44.732;10.550;2022-10-16T14:17:15;101766.34;;;27.99;60.46
32237;BME280;18726;44.732;10.550;2022-10-16T14:20:26;101764.91;;;28.07;63.17
32237;BME280;18726;44.732;10.550;2022-10-16T14:23:39;101759.94;;;28.15;62.77
32237;BME280;18726;44.732;10.550;2022-10-16T14:26:44;101768.50;;;28.08;58.86
32237;BME280;18726;44.732;10.550;2022-10-16T14:29:47;101758.78;;;27.83;63.99
32237;BME280;18726;44.732;10.550;2022-10-16T14:33:06;101760.22;;;27.43;63.58
32237;BME280;18726;44.732;10.550;2022-10-16T14:39:22;101762.59;;;26.56;62.23
32237;BME280;18726;44.732;10.550;2022-10-16T14:42:28;101761.97;;;26.05;63.74
32237;BME280;18726;44.732;10.550;2022-10-16T14:45:34;101767.16;;;25.83;64.58
32237;BME280;18726;44.732;10.550;2022-10-16T14:48:42;101764.66;;;25.89;67.96
32237;BME280;18726;44.732;10.550;2022-10-16T14:51:47;101761.28;;;26.21;70.95
32237;BME280;18726;44.732;10.550;2022-10-16T14:54:51;101762.88;;;26.42;68.25
32237;BME280;18726;44.732;10.550;2022-10-16T14:57:59;101770.56;;;26.14;68.01
32237;BME280;18726;44.732;10.550;2022-10-16T15:01:03;101766.69;;;26.08;71.12
32237;BME280;18726;44.732;10.550;2022-10-16T15:04:11;101771.94;;;25.83;67.92
32237;BME280;18726;44.732;10.550;2022-10-16T15:07:15;101775.69;;;25.73;66.18
32237;BME280;18726;44.732;10.550;2022-10-16T15:10:24;101772.19;;;25.69;68.55
32237;BME280;18726;44.732;10.550;2022-10-16T15:13:29;101772.22;;;25.88;72.47
32237;BME280;18726;44.732;10.550;2022-10-16T15:16:32;101771.03;;;26.09;71.12
32237;BME280;18726;44.732;10.550;2022-10-16T15:19:36;101775.94;;;26.25;67.10
32237;BME280;18726;44.732;10.550;2022-10-16T15:22:40;101773.50;;;26.27;62.49
32237;BME280;18726;44.732;10.550;2022-10-16T15:25:46;101770.25;;;26.09;63.14
32237;BME280;18726;44.732;10.550;2022-10-16T15:28:50;101772.78;;;25.80;65.89
32237;BME280;18726;44.732;10.550;2022-10-16T15:31:54;101773.03;;;25.66;66.52
32237;BME280;18726;44.732;10.550;2022-10-16T15:34:58;101769.75;;;25.71;71.59
32237;BME280;18726;44.732;10.550;2022-10-16T15:38:01;101783.78;;;25.87;70.86
32237;BME280;18726;44.732;10.550;2022-10-16T15:41:05;101773.59;;;26.00;70.52
32237;BME280;18726;44.732;10.550;2022-10-16T15:44:08;101777.38;;;25.90;65.01
32237;BME280;18726;44.732;10.550;2022-10-16T15:47:12;101773.97;;;25.55;65.36
32237;BME280;18726;44.732;10.550;2022-10-16T15:50:16;101783.03;;;25.36;69.13
32237;BME280;18726;44.732;10.550;2022-10-16T15:53:20;101790.13;;;25.41;71.64
32237;BME280;18726;44.732;10.550;2022-10-16T15:56:24;101785.56;;;25.50;71.29
32237;BME280;18726;44.732;10.550;2022-10-16T15:59:29;101793.19;;;25.46;69.73
32237;BME280;18726;44.732;10.550;2022-10-16T16:02:33;101794.03;;;25.43;69.78
32237;BME280;18726;44.732;10.550;2022-10-16T16:05:38;101795.00;;;25.33;71.05
32237;BME280;18726;44.732;10.550;2022-10-16T16:08:42;101791.31;;;25.13;70.75
32237;BME280;18726;44.732;10.550;2022-10-16T16:11:46;101787.03;;;24.78;71.47
32237;BME280;18726;44.732;10.550;2022-10-16T16:14:50;101790.47;;;24.55;72.23
32237;BME280;18726;44.732;10.550;2022-10-16T16:17:54;101790.66;;;24.41;74.97
32237;BME280;18726;44.732;10.550;2022-10-16T16:20:57;101792.38;;;24.28;76.58
32237;BME280;18726;44.732;10.550;2022-10-16T16:24:01;101798.78;;;24.21;77.30
32237;BME280;18726;44.732;10.550;2022-10-16T16:27:10;101792.81;;;24.22;81.10
32237;BME280;18726;44.732;10.550;2022-10-16T16:30:14;101796.50;;;24.12;77.97
32237;BME280;18726;44.732;10.550;2022-10-16T16:33:18;101791.03;;;24.02;81.00
32237;BME280;18726;44.732;10.550;2022-10-16T16:36:23;101795.03;;;23.97;84.62
32237;BME280;18726;44.732;10.550;2022-10-16T16:39:27;101791.97;;;23.88;81.45
32237;BME280;18726;44.732;10.550;2022-10-16T16:42:31;101796.03;;;23.76;81.51
32237;BME280;18726;44.732;10.550;2022-10-16T16:45:37;101798.06;;;23.69;86.05
32237;BME280;18726;44.732;10.550;2022-10-16T16:48:41;101795.00;;;23.60;88.06
32237;BME280;18726;44.732;10.550;2022-10-16T16:51:45;101806.09;;;23.60;88.47
32237;BME280;18726;44.732;10.550;2022-10-16T16:54:48;101814.38;;;23.67;91.04
32237;BME280;18726;44.732;10.550;2022-10-16T16:57:55;101813.47;;;23.77;91.64
32237;BME280;18726;44.732;10.550;2022-10-16T17:01:00;101826.13;;;23.81;92.18
32237;BME280;18726;44.732;10.550;2022-10-16T17:04:05;101831.69;;;23.78;91.96
32237;BME280;18726;44.732;10.550;2022-10-16T17:07:09;101834.09;;;23.76;92.28
32237;BME280;18726;44.732;10.550;2022-10-16T17:10:13;101838.81;;;23.79;90.93
32237;BME280;18726;44.732;10.550;2022-10-16T17:13:17;101843.59;;;23.78;94.88
32237;BME280;18726;44.732;10.550;2022-10-16T17:16:22;101850.00;;;23.68;96.20
32237;BME280;18726;44.732;10.550;2022-10-16T17:19:26;101859.22;;;23.54;97.57
32237;BME280;18726;44.732;10.550;2022-10-16T17:22:30;101858.47;;;23.43;98.47
32237;BME280;18726;44.732;10.550;2022-10-16T17:25:41;101858.97;;;23.31;100.00
32237;BME280;18726;44.732;10.550;2022-10-16T17:28:45;101869.31;;;23.20;100.00
32237;BME280;18726;44.732;10.550;2022-10-16T17:31:52;101866.19;;;23.11;100.00
32237;BME280;18726;44.732;10.550;2022-10-16T17:34:58;101873.34;;;23.08;98.89
32237;BME280;18726;44.732;10.550;2022-10-16T17:38:02;101872.56;;;23.08;97.48
32237;BME280;18726;44.732;10.550;2022-10-16T17:41:15;101882.47;;;23.05;98.81
32237;BME280;18726;44.732;10.550;2022-10-16T17:44:20;101886.06;;;22.99;100.00
32237;BME280;18726;44.732;10.550;2022-10-16T17:47:23;101897.16;;;22.84;100.00
32237;BME280;18726;44.732;10.550;2022-10-16T17:50:28;101896.41;;;22.77;99.65
32237;BME280;18726;44.732;10.550;2022-10-16T17:53:33;101894.81;;;22.76;100.00
32237;BME280;18726;44.732;10.550;2022-10-16T17:56:39;101895.63;;;22.66;100.00
32237;BME280;18726;44.732;10.550;2022-10-16T17:59:42;101903.16;;;22.54;100.00
32237;BME280;18726;44.732;10.550;2022-10-16T18:02:48;101910.31;;;22.45;100.00
32237;BME280;18726;44.732;10.550;2022-10-16T18:05:54;101905.97;;;22.37;100.00
32237;BME280;18726;44.732;10.550;2022-10-16T18:08:59;101907.53;;;22.23;100.00